createdAt,value
2018-01-11T00:01:48.731Z,1.93
2018-01-11T00:04:16.359Z,1.94
2018-01-11T00:06:43.986Z,2.03
2018-01-11T00:09:11.575Z,2.01
2018-01-11T00:11:39.194Z,1.99
2018-01-11T00:14:06.785Z,1.99
2018-01-11T00:16:34.398Z,2.18
2018-01-11T00:19:01.987Z,2.15
2018-01-11T00:21:29.566Z,2.27
2018-01-11T00:23:57.146Z,2.30
2018-01-11T00:26:24.735Z,2.20
2018-01-11T00:28:52.323Z,2.10
2018-01-11T00:31:19.907Z,2.02
2018-01-11T00:33:47.526Z,2.04
2018-01-11T00:36:15.111Z,1.96
2018-01-11T00:38:42.731Z,1.96
2018-01-11T00:41:10.313Z,1.96
2018-01-11T00:43:37.935Z,2.00
2018-01-11T00:46:05.528Z,2.09
2018-01-11T00:48:33.149Z,2.01
2018-01-11T00:51:00.827Z,1.99
2018-01-11T00:53:28.442Z,2.06
2018-01-11T00:55:56.023Z,2.09
2018-01-11T00:58:23.607Z,2.33
2018-01-11T01:00:51.275Z,2.42
2018-01-11T01:03:18.859Z,2.46
2018-01-11T01:05:46.478Z,2.34
2018-01-11T01:08:14.066Z,2.33
2018-01-11T01:10:41.823Z,2.19
2018-01-11T01:13:09.412Z,2.11
2018-01-11T01:15:36.998Z,2.07
2018-01-11T01:18:04.582Z,2.12
2018-01-11T01:20:32.166Z,2.36
2018-01-11T01:22:59.755Z,2.53
2018-01-11T01:25:27.395Z,2.38
2018-01-11T01:27:54.981Z,2.42
2018-01-11T01:30:22.564Z,2.36
2018-01-11T01:32:50.155Z,2.26
2018-01-11T01:35:17.786Z,2.17
2018-01-11T01:37:45.371Z,2.10
2018-01-11T01:40:13.099Z,2.07
2018-01-11T01:42:40.734Z,2.06
2018-01-11T01:45:08.391Z,2.07
2018-01-11T01:47:35.986Z,2.06
2018-01-11T01:50:03.579Z,1.94
2018-01-11T01:52:31.171Z,2.00
2018-01-11T01:54:58.759Z,2.30
2018-01-11T01:57:26.349Z,2.34
2018-01-11T01:59:53.931Z,2.26
2018-01-11T02:02:21.515Z,2.19
2018-01-11T02:04:49.103Z,2.15
2018-01-11T02:07:16.688Z,2.10
2018-01-11T02:09:44.270Z,2.12
2018-01-11T02:12:11.887Z,2.13
2018-01-11T02:14:39.527Z,2.15
2018-01-11T02:17:07.114Z,2.15
2018-01-11T02:19:34.699Z,2.15
2018-01-11T02:22:02.342Z,2.11
2018-01-11T02:24:29.959Z,2.12
2018-01-11T02:26:57.540Z,2.35
2018-01-11T02:29:25.204Z,2.26
2018-01-11T02:31:52.781Z,2.25
2018-01-11T02:34:20.365Z,2.22
2018-01-11T02:36:48.015Z,2.22
2018-01-11T02:39:15.855Z,2.22
2018-01-11T02:41:43.514Z,2.22
2018-01-11T02:44:11.207Z,2.21
2018-01-11T02:46:38.835Z,2.21
2018-01-11T02:49:06.691Z,2.18
2018-01-11T02:51:34.366Z,2.19
2018-01-11T02:54:02.083Z,2.21
2018-01-11T02:56:29.667Z,2.36
2018-01-11T02:58:57.357Z,2.28
2018-01-11T03:01:25.019Z,2.27
2018-01-11T03:03:52.609Z,2.22
2018-01-11T03:06:20.200Z,2.22
2018-01-11T03:08:47.823Z,2.18
2018-01-11T03:11:15.418Z,2.18
2018-01-11T03:13:43.035Z,2.33
2018-01-11T03:16:10.620Z,2.37
2018-01-11T03:18:38.239Z,2.32
2018-01-11T03:21:05.827Z,2.22
2018-01-11T03:23:33.410Z,2.39
2018-01-11T03:26:01.044Z,2.36
2018-01-11T03:28:28.631Z,2.29
2018-01-11T03:30:56.209Z,2.28
2018-01-11T03:33:23.808Z,2.26
2018-01-11T03:35:51.590Z,2.27
2018-01-11T03:38:19.170Z,2.22
2018-01-11T03:40:46.757Z,2.23
2018-01-11T03:43:14.348Z,2.27
2018-01-11T03:45:42.031Z,2.28
2018-01-11T03:48:09.664Z,2.21
2018-01-11T03:50:37.363Z,2.22
2018-01-11T03:53:04.950Z,2.25
2018-01-11T03:55:32.530Z,2.23
2018-01-11T03:58:00.155Z,2.24
2018-01-11T04:00:27.807Z,2.27
2018-01-11T04:02:55.403Z,2.31
2018-01-11T04:05:22.998Z,2.30
2018-01-11T04:07:50.589Z,2.32
2018-01-11T04:10:18.220Z,2.35
2018-01-11T04:12:45.799Z,2.34
2018-01-11T04:15:13.480Z,2.40
2018-01-11T04:17:41.066Z,2.38
2018-01-11T04:20:08.690Z,2.38
2018-01-11T04:22:36.314Z,2.41
2018-01-11T04:25:03.939Z,2.40
2018-01-11T04:27:31.571Z,2.45
2018-01-11T04:29:59.160Z,2.39
2018-01-11T04:32:26.746Z,2.55
2018-01-11T04:34:54.371Z,2.58
2018-01-11T04:37:21.959Z,2.54
2018-01-11T04:39:49.542Z,2.54
2018-01-11T04:42:17.135Z,2.61
2018-01-11T04:44:44.724Z,2.67
2018-01-11T04:47:12.368Z,2.83
2018-01-11T04:49:39.990Z,2.86
2018-01-11T04:52:07.607Z,2.93
2018-01-11T04:54:35.263Z,2.79
2018-01-11T04:57:02.939Z,2.61
2018-01-11T04:59:30.568Z,2.60
2018-01-11T05:01:58.261Z,2.62
2018-01-11T05:04:25.883Z,2.53
2018-01-11T05:06:53.471Z,2.56
2018-01-11T05:09:21.147Z,2.54
2018-01-11T05:11:48.774Z,2.51
2018-01-11T05:14:16.365Z,2.63
2018-01-11T05:16:43.954Z,2.58
2018-01-11T05:19:11.543Z,2.57
2018-01-11T05:21:39.132Z,2.53
2018-01-11T05:24:06.727Z,2.56
2018-01-11T05:26:34.362Z,2.53
2018-01-11T05:29:01.952Z,2.74
2018-01-11T05:31:29.572Z,2.70
2018-01-11T05:33:57.310Z,2.87
2018-01-11T05:36:24.898Z,2.77
2018-01-11T05:38:52.518Z,2.74
2018-01-11T05:41:20.146Z,2.68
2018-01-11T05:43:47.771Z,2.68
2018-01-11T05:46:15.363Z,2.63
2018-01-11T05:48:42.987Z,2.58
2018-01-11T05:51:10.619Z,2.55
2018-01-11T05:53:38.211Z,2.65
2018-01-11T05:56:05.804Z,2.58
2018-01-11T05:58:33.394Z,2.59
2018-01-11T06:01:00.983Z,2.73
2018-01-11T06:03:28.571Z,2.96
2018-01-11T06:05:56.163Z,3.11
2018-01-11T06:08:23.755Z,3.16
2018-01-11T06:10:51.343Z,2.89
2018-01-11T06:13:18.972Z,2.86
2018-01-11T06:15:46.564Z,2.87
2018-01-11T06:18:14.196Z,2.92
2018-01-11T06:20:41.783Z,3.05
2018-01-11T06:23:09.432Z,2.99
2018-01-11T06:25:37.031Z,2.91
2018-01-11T06:28:04.662Z,2.93
2018-01-11T06:30:32.255Z,2.86
2018-01-11T06:32:59.887Z,2.81
2018-01-11T06:35:27.510Z,2.81
2018-01-11T06:37:55.098Z,2.69
2018-01-11T06:40:22.693Z,2.78
2018-01-11T06:42:50.322Z,2.81
2018-01-11T06:45:17.915Z,2.80
2018-01-11T06:47:45.508Z,2.83
2018-01-11T06:50:13.171Z,2.83
2018-01-11T06:52:40.835Z,2.83
2018-01-11T06:55:08.462Z,2.93
2018-01-11T06:57:36.058Z,2.98
2018-01-11T07:00:03.687Z,2.99
2018-01-11T07:02:31.271Z,2.98
2018-01-11T07:04:58.855Z,2.99
2018-01-11T07:07:26.558Z,2.87
2018-01-11T07:09:54.180Z,3.00
2018-01-11T07:12:21.815Z,3.12
2018-01-11T07:14:49.461Z,2.92
2018-01-11T07:17:17.108Z,2.98
2018-01-11T07:19:44.708Z,3.02
2018-01-11T07:22:12.429Z,3.01
2018-01-11T07:24:40.051Z,2.91
2018-01-11T07:27:08.252Z,2.88
2018-01-11T07:29:35.881Z,2.87
2018-01-11T07:32:03.508Z,2.92
2018-01-11T07:34:31.098Z,2.95
2018-01-11T07:36:58.714Z,2.93
2018-01-11T07:39:26.352Z,2.82
2018-01-11T07:41:53.946Z,2.79
2018-01-11T07:44:21.535Z,2.88
2018-01-11T07:46:49.115Z,2.84
2018-01-11T07:49:16.706Z,2.78
2018-01-11T07:51:44.441Z,2.76
2018-01-11T07:54:12.107Z,2.84
2018-01-11T07:56:39.708Z,2.86
2018-01-11T07:59:07.272Z,3.05
2018-01-11T08:01:34.867Z,3.13
2018-01-11T08:04:02.431Z,3.11
2018-01-11T08:06:29.987Z,3.03
2018-01-11T08:08:57.688Z,3.07
2018-01-11T08:11:25.277Z,3.06
2018-01-11T08:13:52.838Z,3.00
2018-01-11T08:16:20.439Z,3.03
2018-01-11T08:18:47.997Z,3.05
2018-01-11T08:21:15.595Z,3.08
2018-01-11T08:23:43.184Z,3.12
2018-01-11T08:26:10.738Z,3.11
2018-01-11T08:28:38.336Z,3.00
2018-01-11T08:31:05.894Z,3.06
2018-01-11T08:33:33.448Z,3.11
2018-01-11T08:36:00.995Z,3.17
2018-01-11T08:38:28.552Z,3.16
2018-01-11T08:40:56.114Z,3.16
2018-01-11T08:43:23.671Z,3.10
2018-01-11T08:45:51.262Z,3.12
2018-01-11T08:48:18.811Z,3.18
2018-01-11T08:50:46.406Z,3.33
2018-01-11T08:53:13.951Z,3.55
2018-01-11T08:55:41.503Z,3.37
2018-01-11T08:58:09.052Z,3.46
2018-01-11T09:00:36.599Z,3.55
2018-01-11T09:03:04.163Z,3.75
2018-01-11T09:05:31.726Z,3.77
2018-01-11T09:07:59.283Z,3.79
2018-01-11T09:10:26.968Z,3.79
2018-01-11T09:12:54.634Z,3.72
2018-01-11T09:15:22.184Z,3.69
2018-01-11T09:17:49.726Z,3.84
2018-01-11T09:20:17.293Z,3.98
2018-01-11T09:22:44.879Z,3.75
2018-01-11T09:25:12.440Z,3.98
2018-01-11T09:27:50.794Z,3.89
2018-01-11T09:30:19.510Z,3.69
2018-01-11T09:32:47.078Z,3.64
2018-01-11T09:35:14.639Z,3.46
2018-01-11T09:37:42.238Z,3.80
2018-01-11T09:40:09.794Z,3.88
2018-01-11T09:42:37.371Z,4.02
2018-01-11T09:45:04.956Z,3.82
2018-01-11T09:47:32.559Z,3.70
2018-01-11T09:50:00.123Z,3.71
2018-01-11T09:52:27.667Z,3.94
2018-01-11T09:54:55.222Z,4.01
2018-01-11T09:57:22.773Z,4.05
2018-01-11T09:59:50.355Z,3.93
2018-01-11T10:02:17.898Z,3.91
2018-01-11T10:04:45.454Z,3.91
2018-01-11T10:07:13.020Z,3.76
2018-01-11T10:09:40.577Z,3.83
2018-01-11T10:12:08.171Z,3.72
2018-01-11T10:14:35.754Z,3.81
2018-01-11T10:17:03.309Z,3.88
2018-01-11T10:19:30.896Z,3.96
2018-01-11T10:21:58.480Z,3.92
2018-01-11T10:24:26.033Z,4.10
2018-01-11T10:26:53.619Z,4.40
2018-01-11T10:29:21.198Z,4.51
2018-01-11T10:31:48.746Z,4.31
2018-01-11T10:34:16.319Z,4.21
2018-01-11T10:36:43.872Z,4.08
2018-01-11T10:39:11.427Z,4.04
2018-01-11T10:41:38.979Z,4.02
2018-01-11T10:44:06.666Z,4.12
2018-01-11T10:46:34.293Z,4.06
2018-01-11T10:49:01.888Z,4.33
2018-01-11T10:51:29.439Z,4.28
2018-01-11T10:53:57.031Z,4.24
2018-01-11T10:56:24.648Z,4.38
2018-01-11T10:58:52.202Z,4.17
2018-01-11T11:01:25.439Z,4.13
2018-01-11T11:03:53.039Z,4.09
2018-01-11T11:06:20.591Z,4.08
2018-01-11T11:08:48.145Z,4.20
2018-01-11T11:11:15.742Z,4.31
2018-01-11T11:13:43.304Z,4.17
2018-01-11T11:16:10.894Z,4.37
2018-01-11T11:18:38.484Z,4.37
2018-01-11T11:21:06.042Z,4.40
2018-01-11T11:23:33.646Z,4.42
2018-01-11T11:26:01.201Z,4.32
2018-01-11T11:28:28.794Z,4.50
2018-01-11T11:30:56.351Z,4.47
2018-01-11T11:33:23.910Z,4.34
2018-01-11T11:35:51.499Z,4.59
2018-01-11T11:38:19.099Z,4.66
2018-01-11T11:40:46.702Z,4.47
2018-01-11T11:43:14.308Z,4.48
2018-01-11T11:45:41.947Z,4.48
2018-01-11T11:48:09.605Z,4.48
2018-01-11T11:50:37.183Z,4.46
2018-01-11T11:53:05.398Z,4.79
2018-01-11T11:55:33.445Z,4.62
2018-01-11T11:58:01.060Z,4.74
2018-01-11T12:00:28.648Z,4.54
2018-01-11T12:02:56.207Z,4.42
2018-01-11T12:05:23.853Z,4.41
2018-01-11T12:07:51.405Z,4.42
2018-01-11T12:10:19.026Z,4.39
2018-01-11T12:12:46.608Z,4.48
2018-01-11T12:15:14.167Z,4.53
2018-01-11T12:17:41.748Z,4.72
2018-01-11T12:20:09.409Z,4.74
2018-01-11T12:22:36.958Z,4.71
2018-01-11T12:25:04.540Z,4.64
2018-01-11T12:27:32.094Z,4.58
2018-01-11T12:29:59.687Z,4.53
2018-01-11T12:32:27.239Z,4.44
2018-01-11T12:34:54.831Z,4.44
2018-01-11T12:37:22.388Z,4.66
2018-01-11T12:39:50.000Z,4.49
2018-01-11T12:42:17.663Z,4.52
2018-01-11T12:44:45.319Z,4.44
2018-01-11T12:47:12.874Z,4.48
2018-01-11T12:49:40.424Z,4.38
2018-01-11T12:52:07.982Z,4.62
2018-01-11T12:54:35.566Z,4.80
2018-01-11T12:57:03.152Z,4.99
2018-01-11T12:59:30.713Z,4.88
2018-01-11T13:01:58.304Z,4.75
2018-01-11T13:04:25.857Z,4.78
2018-01-11T13:06:53.484Z,4.62
2018-01-11T13:09:21.764Z,4.73
2018-01-11T13:11:49.411Z,4.91
2018-01-11T13:14:17.074Z,4.74
2018-01-11T13:16:44.631Z,4.68
2018-01-11T13:19:12.185Z,4.58
2018-01-11T13:21:39.762Z,4.67
2018-01-11T13:24:07.314Z,4.66
2018-01-11T13:26:34.876Z,4.59
2018-01-11T13:29:02.443Z,4.69
2018-01-11T13:31:30.000Z,4.55
2018-01-11T13:33:57.599Z,4.72
2018-01-11T13:36:25.224Z,4.69
2018-01-11T13:38:52.775Z,4.64
2018-01-11T13:41:20.377Z,4.74
2018-01-11T13:43:47.923Z,4.87
2018-01-11T13:46:15.486Z,4.71
2018-01-11T13:48:43.164Z,4.60
2018-01-11T13:51:10.751Z,4.40
2018-01-11T13:53:38.303Z,4.38
2018-01-11T13:56:05.895Z,4.32
2018-01-11T13:58:33.507Z,4.31
2018-01-11T14:01:01.095Z,4.33
2018-01-11T14:03:28.735Z,4.31
2018-01-11T14:05:56.328Z,4.30
2018-01-11T14:08:23.955Z,4.33
2018-01-11T14:10:51.507Z,4.38
2018-01-11T14:13:19.184Z,4.41
2018-01-11T14:15:46.743Z,4.44
2018-01-11T14:18:14.508Z,4.45
2018-01-11T14:20:42.068Z,4.45
2018-01-11T14:23:09.658Z,4.42
2018-01-11T14:25:37.210Z,4.39
2018-01-11T14:28:04.771Z,4.38
2018-01-11T14:30:32.323Z,4.41
2018-01-11T14:32:59.972Z,4.43
2018-01-11T14:35:27.504Z,4.40
2018-01-11T14:37:55.089Z,4.36
2018-01-11T14:42:56.560Z,4.28
2018-01-11T14:45:24.222Z,4.19
2018-01-11T14:47:51.854Z,4.22
2018-01-11T14:50:19.403Z,4.22
2018-01-11T14:52:46.955Z,4.25
2018-01-11T14:55:14.503Z,4.42
2018-01-11T14:57:42.136Z,4.55
2018-01-11T15:00:09.762Z,4.59
2018-01-11T15:02:37.322Z,4.44
2018-01-11T15:05:04.911Z,4.38
2018-01-11T15:07:32.459Z,4.32
2018-01-11T15:10:00.051Z,4.30
2018-01-11T15:12:28.467Z,4.30
2018-01-11T15:14:56.059Z,4.29
2018-01-11T15:17:23.611Z,4.25
2018-01-11T15:19:51.210Z,4.26
2018-01-11T15:22:18.767Z,4.25
2018-01-11T15:24:46.319Z,4.16
2018-01-11T15:27:13.887Z,4.13
2018-01-11T15:29:41.438Z,4.11
2018-01-11T15:32:08.987Z,4.15
2018-01-11T15:34:36.542Z,4.15
2018-01-11T15:37:04.095Z,4.21
2018-01-11T15:39:31.682Z,4.21
2018-01-11T15:41:59.240Z,4.08
2018-01-11T15:44:26.786Z,4.28
2018-01-11T15:46:54.336Z,4.37
2018-01-11T15:49:21.886Z,4.24
2018-01-11T15:51:49.435Z,4.16
2018-01-11T15:54:16.991Z,4.15
2018-01-11T15:56:44.547Z,4.21
2018-01-11T15:59:12.167Z,4.19
2018-01-11T16:01:39.830Z,4.17
2018-01-11T16:04:07.394Z,4.07
2018-01-11T16:06:35.055Z,4.01
2018-01-11T16:09:02.660Z,3.98
2018-01-11T16:11:30.212Z,3.97
2018-01-11T16:13:57.863Z,3.87
2018-01-11T16:16:25.451Z,3.90
2018-01-11T16:18:53.033Z,3.81
2018-01-11T16:21:20.619Z,3.89
2018-01-11T16:23:48.312Z,3.90
2018-01-11T16:26:15.971Z,3.83
2018-01-11T16:28:43.563Z,3.95
2018-01-11T16:31:11.145Z,3.90
2018-01-11T16:33:38.722Z,3.76
2018-01-11T16:36:06.324Z,3.71
2018-01-11T16:38:33.907Z,3.69
2018-01-11T16:41:01.493Z,3.71
2018-01-11T16:43:29.107Z,3.64
2018-01-11T16:45:56.727Z,3.62
2018-01-11T16:48:24.337Z,3.68
2018-01-11T16:50:51.923Z,3.73
2018-01-11T16:53:19.509Z,3.91
2018-01-11T16:55:47.087Z,3.76
2018-01-11T16:58:14.708Z,3.79
2018-01-11T17:00:42.295Z,3.65
2018-01-11T17:03:09.870Z,3.62
2018-01-11T17:05:37.450Z,3.53
2018-01-11T17:08:05.044Z,3.54
2018-01-11T17:10:32.623Z,3.51
2018-01-11T17:13:00.247Z,3.51
2018-01-11T17:15:28.647Z,3.47
2018-01-11T17:17:56.319Z,3.47
2018-01-11T17:20:23.908Z,3.45
2018-01-11T17:22:51.508Z,3.44
2018-01-11T17:25:19.086Z,3.55
2018-01-11T17:27:46.772Z,3.73
2018-01-11T17:30:14.358Z,3.66
2018-01-11T17:32:41.968Z,3.60
2018-01-11T17:35:09.546Z,3.70
2018-01-11T17:37:37.127Z,3.73
2018-01-11T17:40:04.748Z,3.62
2018-01-11T17:42:32.337Z,3.51
2018-01-11T17:44:59.923Z,3.59
2018-01-11T17:47:27.507Z,3.50
2018-01-11T17:49:55.091Z,3.42
2018-01-11T17:52:22.809Z,3.42
2018-01-11T17:54:50.443Z,3.38
2018-01-11T17:57:18.109Z,3.58
2018-01-11T17:59:45.690Z,3.51
2018-01-11T18:02:13.270Z,3.58
2018-01-11T18:04:40.960Z,3.58
2018-01-11T18:07:08.541Z,3.49
2018-01-11T18:09:36.654Z,3.56
2018-01-11T18:12:04.262Z,3.54
2018-01-11T18:14:31.925Z,3.56
2018-01-11T18:16:59.555Z,3.52
2018-01-11T18:19:27.239Z,3.58
2018-01-11T18:21:54.942Z,3.46
2018-01-11T18:24:22.607Z,3.50
2018-01-11T18:26:50.311Z,3.42
2018-01-11T18:29:17.999Z,3.38
2018-01-11T18:31:45.633Z,3.31
2018-01-11T18:34:13.298Z,3.29
2018-01-11T18:36:40.918Z,3.41
2018-01-11T18:39:08.551Z,3.53
2018-01-11T18:41:36.144Z,3.60
2018-01-11T18:44:03.722Z,3.50
2018-01-11T18:46:31.330Z,3.66
2018-01-11T18:48:58.996Z,3.57
2018-01-11T18:51:26.577Z,3.57
2018-01-11T18:53:54.166Z,3.46
2018-01-11T18:56:21.779Z,3.39
2018-01-11T18:58:49.361Z,3.30
2018-01-11T19:01:17.005Z,3.26
2018-01-11T19:03:44.583Z,3.37
2018-01-11T19:06:12.163Z,3.35
2018-01-11T19:08:39.787Z,3.32
2018-01-11T19:11:07.371Z,3.24
2018-01-11T19:13:34.952Z,3.21
2018-01-11T19:16:02.737Z,3.23
2018-01-11T19:18:30.355Z,3.45
2018-01-11T19:20:57.930Z,3.34
2018-01-11T19:23:25.509Z,3.36
2018-01-11T19:25:53.090Z,3.33
2018-01-11T19:28:20.715Z,3.39
2018-01-11T19:30:48.299Z,3.36
2018-01-11T19:33:15.980Z,3.37
2018-01-11T19:35:43.670Z,3.68
2018-01-11T19:38:11.256Z,3.68
2018-01-11T19:40:38.899Z,3.63
2018-01-11T19:43:06.481Z,3.60
2018-01-11T19:45:34.067Z,3.81
2018-01-11T19:48:01.671Z,3.71
2018-01-11T19:50:29.342Z,3.56
2018-01-11T19:52:56.929Z,3.46
2018-01-11T19:55:24.551Z,3.38
2018-01-11T19:57:52.227Z,3.33
2018-01-11T20:00:21.295Z,3.30
2018-01-11T20:02:48.991Z,3.35
2018-01-11T20:05:16.620Z,3.51
2018-01-11T20:07:44.204Z,3.37
2018-01-11T20:10:11.791Z,3.56
2018-01-11T20:12:39.408Z,3.51
2018-01-11T20:15:07.104Z,3.41
2018-01-11T20:17:34.737Z,3.26
2018-01-11T20:20:02.436Z,3.26
2018-01-11T20:22:33.193Z,3.25
2018-01-11T20:25:00.784Z,3.44
2018-01-11T20:27:28.407Z,3.44
2018-01-11T20:29:56.255Z,3.49
2018-01-11T20:32:23.844Z,3.40
2018-01-11T20:34:51.431Z,3.31
2018-01-11T20:37:19.041Z,3.43
2018-01-11T20:39:46.699Z,3.46
2018-01-11T20:42:14.323Z,3.35
2018-01-11T20:44:41.967Z,3.39
2018-01-11T20:47:09.550Z,3.46
2018-01-11T20:49:37.176Z,3.37
2018-01-11T20:52:04.850Z,3.47
2018-01-11T20:54:32.610Z,3.51
2018-01-11T20:57:00.187Z,3.45
2018-01-11T20:59:27.822Z,3.32
2018-01-11T21:01:55.415Z,3.37
2018-01-11T21:04:23.026Z,3.40
2018-01-11T21:06:50.695Z,3.43
2018-01-11T21:09:18.323Z,3.35
2018-01-11T21:11:45.906Z,3.26
2018-01-11T21:14:13.611Z,3.42
2018-01-11T21:16:41.276Z,3.25
2018-01-11T21:19:08.863Z,3.42
2018-01-11T21:21:36.451Z,3.30
2018-01-11T21:24:04.035Z,3.31
2018-01-11T21:26:31.686Z,3.35
2018-01-11T21:28:59.267Z,3.41
2018-01-11T21:31:26.847Z,3.37
2018-01-11T21:33:54.472Z,3.24
2018-01-11T21:36:22.067Z,3.28
2018-01-11T21:38:49.700Z,3.21
2018-01-11T21:41:17.359Z,3.29
2018-01-11T21:43:44.950Z,3.34
2018-01-11T21:46:12.586Z,3.30
2018-01-11T21:48:40.245Z,3.42
2018-01-11T21:51:07.856Z,3.44
2018-01-11T21:53:35.440Z,3.50
2018-01-11T21:56:03.130Z,3.60
2018-01-11T21:58:30.828Z,3.50
2018-01-11T22:00:58.463Z,3.44
2018-01-11T22:03:26.108Z,3.42
2018-01-11T22:05:53.699Z,3.41
2018-01-11T22:08:21.292Z,3.38
2018-01-11T22:10:49.827Z,3.33
2018-01-11T22:13:17.418Z,3.31
2018-01-11T22:15:44.999Z,3.29
2018-01-11T22:18:12.582Z,3.26
2018-01-11T22:20:40.273Z,3.46
2018-01-11T22:23:07.867Z,3.52
2018-01-11T22:25:35.446Z,3.66
2018-01-11T22:28:03.091Z,3.62
2018-01-11T22:30:30.680Z,3.46
2018-01-11T22:32:58.286Z,3.35
2018-01-11T22:35:25.870Z,3.34
2018-01-11T22:37:53.451Z,3.39
2018-01-11T22:40:21.032Z,3.31
2018-01-11T22:42:48.631Z,3.31
2018-01-11T22:45:16.212Z,3.56
2018-01-11T22:47:43.798Z,3.55
2018-01-11T22:50:11.512Z,3.49
2018-01-11T22:52:39.091Z,3.29
2018-01-11T22:55:06.677Z,3.30
2018-01-11T22:57:35.199Z,3.30
2018-01-11T23:00:02.779Z,3.43
2018-01-11T23:02:30.367Z,3.36
2018-01-11T23:04:58.001Z,3.43
2018-01-11T23:07:25.667Z,3.57
2018-01-11T23:09:53.254Z,3.39
2018-01-11T23:12:20.854Z,3.49
2018-01-11T23:14:48.432Z,3.41
2018-01-11T23:17:16.054Z,3.40
2018-01-11T23:19:43.634Z,3.39
2018-01-11T23:22:11.219Z,3.38
2018-01-11T23:24:38.867Z,3.53
2018-01-11T23:27:06.456Z,3.48
2018-01-11T23:29:34.042Z,3.56
2018-01-11T23:32:01.684Z,3.53
2018-01-11T23:34:29.367Z,3.64
2018-01-11T23:36:56.943Z,3.59
2018-01-11T23:39:24.530Z,3.61
2018-01-11T23:41:52.112Z,3.53
2018-01-11T23:44:19.806Z,3.45
2018-01-11T23:46:47.392Z,3.62
2018-01-11T23:49:15.027Z,3.53
2018-01-11T23:51:42.611Z,3.43
2018-01-11T23:54:10.238Z,3.35
2018-01-11T23:56:37.823Z,3.38
2018-01-11T23:59:05.412Z,3.42
